Terminal Aerodrome Forecast
Issued by NWS Northern Indiana

Home | Current Version | Previous Version | Graphics & Text | Print | Product List | Glossary Off
Versions: 1 2 3 4 5 6 7 8 9 10 11 12 13 14 15 16 17 18

000
FTUS43 KIWX 310500
TAFFWA
TAF
KFWA 310537Z 3106/0106 20005KT P6SM FEW070
     FM311500 22012KT P6SM BKN200
     FM010400 23007KT 2SM -SN OVC020=

USA.gov is the U.S. government's official web portal to all federal, state and local government web resources and services.